Portada
METAR-TAF:

METAR-TAF

Aeropuertos :

Middleton Field

Evergreen, Alabama, Estados Unidos

latitud: 31-25-08N, longitud: 087-02-53W, altitud: 78 m

Observación

El informe se hizo hace 54 minutos, a las 21:53 UTC
Viento 9 kt del oeste
Temperatura 17°C
Humedad 32%
Presión 1015 hPa
Visibilidad: 16.1 km
Cielo despejado

METAR: KGZH 242153Z AUTO 26009KT 10SM CLR 17/00 A2998 RMK AO2 SLP151 T01720000

Hora: 16:47 (22:47 UTC)


TAF: falta

Observaciones y pronósticos meteorológicos de más de 4000 aeropuertos (mensajes METAR y TAF).

Los puntos amarillos y rojos representan las estaciones disponibles.

Ponga el ratón en el punto deseado para ver el nombre de la estación.

Haga clic para ver las observaciones y los pronósticos meteorológicos.

Para cambiar el mapa : haga clic en los botones verdes con una cruz de color negro para hacer un zoom, en el botón verde con un guión para alejar o en las flechas verdes para mapas adyacentes.


METAR-TAF: